2nd June 2019 | Cork, Co Cork, Ireland

Irish Examiner Cork City Marathon (2019)

Relay: Mixed

Pos Name Team Name Gun Time Overall Pos Category (Pos)
1 The Mixed Race (#6571) 02:39:21 7 Mixed (1)
2 Cork Track Club (#6541) TOGHER AC 02:50:24 8 Mixed (2)
3 Running Out Of Time (#6576) MIDLETON AC 02:55:00 11 Mixed (3)
4 Tim-Joe Time (#6284) DONOUGHMORE AC 02:57:03 12 Mixed (4)
5 Mafia Runners (#6549) 03:11:19 17 Mixed (5)
6 Clayton Hotel Silver Springs Relay 3 (#6599) 03:14:43 21 Mixed (6)
7 Goldielocks And The Four Bears (#6604) WEST MUSKERRY AC 03:15:47 24 Mixed (7)
8 Eagle Ac (#6221) EAGLE AC 03:17:20 26 Mixed (8)
9 Cobh Tr 6 (#6646) 03:17:38 27 Mixed (9)
10 Train With Trevor (#6411) BALLYMORE COBH AC 03:20:28 33 Mixed (10)
11 Brinny 10 (#6154) N/A 03:21:40 34 Mixed (11)
12 Return Of The Macs (#6390) 03:22:24 37 Mixed (12)
13 Accuscience Tortoises (#6622) NONE 03:26:59 40 Mixed (13)
14 Team Ca-Vanagh (#6494) N/A 03:27:12 42 Mixed (14)
15 Dccd19 (#6240) N/A 03:27:21 43 Mixed (15)
16 Amazon Cadence Counters (#6260) 03:27:51 44 Mixed (16)
17 The Bons Babes (#6034) 03:27:53 45 Mixed (17)
18 Maldron Shandon Super Stars (#6121) 03:29:27 48 Mixed (18)
19 Oæloughlin (#6493) ST FINBARR'S AC 03:29:40 50 Mixed (19)
20 Seans Angels. (#6170) MALLOW AC 03:30:08 53 Mixed (20)
21 Happy Feet (#6624) 03:30:30 54 Mixed (21)
22 Hamstring Heroæs (#6454) 03:34:10 60 Mixed (22)
23 Mercer (#6218) 03:34:31 61 Mixed (23)
24 Leevale Mixed (#6551) 03:36:00 65 Mixed (24)
25 Del La Salle Macroom (#6201) 03:36:16 66 Mixed (25)
26 Stockydinan (#6263) ST FINBARR'S AC 03:36:29 68 Mixed (26)
27 Big Toe Blisters (#6262) DONOUGHMORE AC 03:37:01 70 Mixed (27)
28 We Are The Famous Five (#6044) MALLOW AC 03:37:32 71 Mixed (28)
29 Ronan Daly Jermyn 4 (#6086) 03:37:40 72 Mixed (29)
30 The 4 Wise Monkeys + 1 (#6294) 03:37:58 73 Mixed (30)
31 By The Beard Of Zeus (#6058) 03:38:06 74 Mixed (31)
32 Carrie Dream Team (#646) 03:38:35 78 Senior (1)
33 Just Run Fast (#6238) NONE 03:38:47 80 Mixed (32)
34 Sanctuary Runners Team 24 (#6499) SANCTUARY RUNNERS 03:39:00 81 Mixed (33)
35 A+fitness Group 9 (#6452) 03:39:11 82 Mixed (34)
36 Team Wexico (#6490) 03:39:12 83 Mixed (35)
37 Jcd Group (#6387) NONE 03:39:55 85 Mixed (36)
38 Watergrasshill Dream Team (#6574) WATERGRASSHILL AC 03:40:05 86 Mixed (37)
39 Arup Cork (#6208) 03:40:15 88 Mixed (38)
40 Itw (#6509) 03:40:22 89 Mixed (39)
41 Chasing Christy! (#6385) CARRAIG NA BHFEAR AC 03:40:35 90 Mixed (40)
42 Beara Ac Team B (#6173) 03:40:50 91 Mixed (41)
43 Ayrton Group (#6009) 03:41:09 93 Mixed (42)
44 Charlies Angels (#6338) 03:41:21 94 Mixed (43)
45 Gc's (#6164) 03:41:46 95 Mixed (44)
46 Pacemakers (#6441) 03:42:00 96 Mixed (45)
47 Cobh Tri 3 (#6084) 03:42:24 98 Mixed (46)
48 Vicarstown Ns (#6255) 03:42:55 99 Mixed (47)
49 Dave's Angels (#6484) 03:43:06 100 Mixed (48)
50 Run Rabbit Run (#6215) 03:43:49 102 Mixed (49)